Time;durP1;ratioP1;P1;durP2;ratioP2;P2;SDS_P1;SDS_P2;PMS_P1;PMS_P2;Temp;Humidity;BMP_temperature;BMP_pressure;BME280_temperature;BME280_humidity;BME280_pressure;Samples;Min_cycle;Max_cycle;Signal;HPM_P1;HPM_P2
2022/11/26 00:00:54;;;;;;;17.00;3.30;;;;;;;-142.75;100.00;78627.88;4964124;28;20136;-66
2022/11/26 00:03:20;;;;;;;16.27;3.20;;;;;;;-142.75;100.00;78637.72;4963523;28;20244;-66
2022/11/26 00:05:49;;;;;;;14.47;2.97;;;;;;;-142.75;100.00;78645.59;4963823;28;20025;-67
2022/11/26 00:08:31;;;;;;;16.30;2.77;;;;;;;-142.75;100.00;78639.69;4958799;28;20026;-67
2022/11/26 00:10:57;;;;;;;17.90;3.40;;;;;;;-142.75;100.00;78651.50;4963549;28;20131;-67
2022/11/26 00:13:26;;;;;;;15.30;3.78;;;;;;;-142.75;100.00;78647.56;4964895;28;20377;-66
2022/11/26 00:15:52;;;;;;;11.27;3.37;;;;;;;-142.75;100.00;78653.47;4964163;28;20033;-67
2022/11/26 00:18:18;;;;;;;;;;;;;;;-142.75;100.00;78643.63;4965657;28;20029;-66
2022/11/26 00:20:45;;;;;;;15.77;3.30;;;;;;;-142.75;100.00;78651.50;4962942;28;19916;-66
2022/11/26 00:23:25;;;;;;;11.67;3.30;;;;;;;-142.75;100.00;78661.34;4963386;28;20029;-67
2022/11/26 00:26:13;;;;;;;8.83;3.50;;;;;;;-142.75;100.00;78665.28;4963281;28;20037;-67
2022/11/26 00:28:48;;;;;;;13.77;3.50;;;;;;;-142.75;100.00;78677.13;4962394;28;20056;-67
2022/11/26 00:31:15;;;;;;;9.27;3.37;;;;;;;-142.75;100.00;78677.13;4963519;28;20643;-67
2022/11/26 00:33:40;;;;;;;19.53;4.60;;;;;;;-142.75;100.00;78685.00;4963270;28;20029;-67
2022/11/26 00:36:21;;;;;;;12.95;3.42;;;;;;;-142.75;100.00;78692.88;4963311;28;20196;-66
2022/11/26 00:38:52;;;;;;;14.80;3.87;;;;;;;-142.75;100.00;78688.94;4962363;28;20033;-66
2022/11/26 00:41:20;;;;;;;15.33;5.03;;;;;;;-142.75;100.00;78694.84;4962550;28;20055;-67
2022/11/26 00:43:46;;;;;;;18.70;6.17;;;;;;;-142.75;100.00;78712.56;4962956;28;20036;-68
2022/11/26 00:46:17;;;;;;;13.95;5.38;;;;;;;-142.75;100.00;78712.56;4962908;28;20025;-66
2022/11/26 00:48:43;;;;;;;12.93;4.83;;;;;;;-142.75;100.00;78728.31;4963559;28;20557;-67
2022/11/26 00:51:22;;;;;;;23.10;4.90;;;;;;;-142.75;100.00;78708.63;4963154;28;20029;-67
2022/11/26 00:53:48;;;;;;;20.47;4.50;;;;;;;-142.75;100.00;78716.50;4962327;28;20025;-66
2022/11/26 00:56:17;;;;;;;13.73;3.73;;;;;;;-142.75;100.00;78734.22;4962505;28;20025;-66
2022/11/26 00:58:44;;;;;;;12.90;4.23;;;;;;;-142.75;100.00;78720.44;4960478;28;20052;-66
2022/11/26 01:01:12;;;;;;;10.40;3.83;;;;;;;-142.75;100.00;78736.19;4962077;28;20030;-66
2022/11/26 01:03:41;;;;;;;14.10;4.67;;;;;;;-142.75;100.00;78757.88;4962134;28;20036;-65
2022/11/26 01:06:34;;;;;;;12.73;3.83;;;;;;;-142.75;100.00;78740.13;4961830;28;20087;-66
2022/11/26 01:09:00;;;;;;;14.27;3.90;;;;;;;-142.75;100.00;78755.91;4961633;28;20558;-66
2022/11/26 01:11:26;;;;;;;;;;;;;;;-142.75;100.00;78757.88;4963026;28;20136;-66
2022/11/26 01:13:53;;;;;;;15.73;4.00;;;;;;;-142.75;100.00;78763.78;4960638;28;20218;-66
2022/11/26 01:16:25;;;;;;;18.17;4.60;;;;;;;-142.75;100.00;78781.50;4963485;28;20029;-67
2022/11/26 01:18:53;;;;;;;21.13;4.47;;;;;;;-142.75;100.00;78771.66;4962366;28;20033;-65
2022/11/26 01:21:20;;;;;;;13.03;4.20;;;;;;;-142.75;100.00;78779.53;4962408;28;20095;-66
2022/11/26 01:23:46;;;;;;;17.77;3.60;;;;;;;-142.75;100.00;78795.28;4962227;28;20108;-67
2022/11/26 01:26:17;;;;;;;13.80;3.92;;;;;;;-142.75;100.00;78783.47;4962224;28;20385;-66
2022/11/26 01:28:43;;;;;;;19.63;4.00;;;;;;;-142.75;100.00;78781.50;4962243;28;20021;-67
2022/11/26 01:31:17;;;;;;;15.88;3.95;;;;;;;-142.75;100.00;78779.53;4961910;28;20053;-66
2022/11/26 01:33:44;;;;;;;17.63;4.30;;;;;;;-142.75;100.00;78787.41;4949171;28;20033;-67
2022/11/26 01:36:24;;;;;;;14.67;4.07;;;;;;;-142.75;100.00;78791.34;4962086;28;20055;-67
2022/11/26 01:39:14;;;;;;;10.83;4.07;;;;;;;-142.75;100.00;78767.72;4952462;28;20191;-67
2022/11/26 01:41:50;;;;;;;16.33;3.73;;;;;;;-142.75;100.00;78767.72;4962241;28;20073;-66
2022/11/26 01:44:25;;;;;;;13.80;4.43;;;;;;;-142.75;100.00;78781.50;4962428;28;20044;-67
2022/11/26 01:46:51;;;;;;;13.17;3.80;;;;;;;-142.75;100.00;78769.69;4962050;28;20555;-66
2022/11/26 01:49:37;;;;;;;13.97;3.90;;;;;;;-142.75;100.00;78767.72;4961780;28;20040;-67
2022/11/26 01:52:23;;;;;;;14.47;4.67;;;;;;;-142.75;100.00;78777.56;4957829;28;20042;-66
2022/11/26 01:54:51;;;;;;;12.90;4.18;;;;;;;-142.75;100.00;78777.56;4960063;28;20033;-66
2022/11/26 01:57:19;;;;;;;9.70;4.03;;;;;;;-142.75;100.00;78773.63;4961888;28;20021;-67
2022/11/26 01:59:50;;;;;;;10.80;4.17;;;;;;;-142.75;100.00;78777.56;4961841;28;20021;-66
2022/11/26 02:02:16;;;;;;;15.53;4.60;;;;;;;-142.75;100.00;78791.34;4961640;28;20022;-66
2022/11/26 02:05:18;;;;;;;16.13;6.17;;;;;;;-142.75;100.00;78783.47;4961538;28;20565;-65
2022/11/26 02:07:44;;;;;;;17.47;4.70;;;;;;;-142.75;100.00;78789.38;4940637;28;20582;-67
2022/11/26 02:10:11;;;;;;;;;;;;;;;-142.75;100.00;78791.34;4962487;28;20103;-66
2022/11/26 02:12:37;;;;;;;15.60;4.07;;;;;;;-142.75;100.00;78793.31;4961331;28;20678;-66
2022/11/26 02:15:02;;;;;;;16.63;4.82;;;;;;;-142.75;100.00;78799.22;4962015;28;20030;-66
2022/11/26 02:17:34;;;;;;;12.60;3.97;;;;;;;-142.75;100.00;78799.22;4961388;28;20029;-67
2022/11/26 02:20:18;;;;;;;14.30;4.70;;;;;;;-142.75;100.00;78793.31;4965226;28;20672;-64
2022/11/26 02:23:14;;;;;;;17.03;4.83;;;;;;;-142.75;100.00;78811.03;4960691;28;20052;-64
2022/11/26 02:26:28;;;;;;;12.90;4.17;;;;;;;-142.75;100.00;78805.13;4958228;28;20021;-65
2022/11/26 02:29:10;;;;;;;15.03;4.27;;;;;;;-142.75;100.00;78799.22;4941831;28;20562;-65
2022/11/26 02:31:50;;;;;;;12.90;4.33;;;;;;;-142.75;100.00;78811.03;4965498;28;20021;-65
2022/11/26 02:34:15;;;;;;;10.40;5.20;;;;;;;-142.75;100.00;78816.94;4963649;28;20111;-64
2022/11/26 02:36:48;;;;;;;11.70;4.35;;;;;;;-142.75;100.00;78814.97;4965069;28;20425;-65
2022/11/26 02:39:16;;;;;;;15.60;5.43;;;;;;;-142.75;100.00;78814.97;4963542;28;20211;-64
2022/11/26 02:41:49;;;;;;;18.80;5.00;;;;;;;-142.75;100.00;78814.97;4964874;28;20056;-64
2022/11/26 02:44:18;;;;;;;15.73;4.40;;;;;;;-142.75;100.00;78822.88;4964875;28;20033;-64
2022/11/26 02:46:48;;;;;;;11.73;4.83;;;;;;;-142.75;100.00;78809.06;4964915;28;20029;-67
2022/11/26 02:49:19;;;;;;;14.27;4.73;;;;;;;-142.75;100.00;78814.97;4945165;28;20060;-67
2022/11/26 02:51:52;;;;;;;13.90;4.43;;;;;;;-142.75;100.00;78811.03;4966048;28;20029;-65
2022/11/26 02:54:20;;;;;;;20.77;5.63;;;;;;;-142.75;100.00;78816.94;4965357;28;20287;-67
2022/11/26 02:56:47;;;;;;;13.47;5.67;;;;;;;-142.75;100.00;78822.88;4964725;28;20038;-66
2022/11/26 02:59:13;;;;;;;21.47;6.33;;;;;;;-142.75;100.00;78814.97;4964481;28;20056;-65
2022/11/26 03:02:02;;;;;;;21.63;5.07;;;;;;;-142.75;100.00;78814.97;4964353;28;20091;-65
2022/11/26 03:04:34;;;;;;;12.57;4.87;;;;;;;-142.75;100.00;78809.06;4962504;28;20210;-65
2022/11/26 03:07:03;;;;;;;11.23;4.40;;;;;;;-142.75;100.00;78807.09;4964342;28;20033;-65
2022/11/26 03:09:39;;;;;;;21.67;5.77;;;;;;;-142.75;100.00;78814.97;4964682;28;20132;-66
2022/11/26 03:12:05;;;;;;;11.18;4.63;;;;;;;-142.75;100.00;78799.22;4965064;28;20026;-65
2022/11/26 03:14:30;;;;;;;13.07;4.57;;;;;;;-142.75;100.00;78787.41;4964559;28;20323;-66
2022/11/26 03:16:56;;;;;;;20.38;4.78;;;;;;;-142.75;100.00;78791.34;4964501;28;20329;-66
2022/11/26 03:19:21;;;;;;;19.70;5.15;;;;;;;-142.75;100.00;78795.28;4964286;28;20318;-65
2022/11/26 03:21:47;;;;;;;16.77;5.80;;;;;;;-142.75;100.00;78807.09;4965401;28;20319;-66
2022/11/26 03:24:13;;;;;;;14.52;5.10;;;;;;;-142.75;100.00;78809.06;4965524;28;20308;-66
2022/11/26 03:26:39;;;;;;;13.53;5.20;;;;;;;-142.75;100.00;78805.13;4964086;28;20060;-66
2022/11/26 03:29:04;;;;;;;20.63;6.00;;;;;;;-142.75;100.00;78809.06;4963740;28;20338;-65
2022/11/26 03:31:30;;;;;;;18.40;5.28;;;;;;;-142.75;100.00;78805.13;4964520;28;20484;-65
2022/11/26 03:33:55;;;;;;;21.63;5.70;;;;;;;-142.75;100.00;78814.97;4965721;28;20354;-65
2022/11/26 03:36:21;;;;;;;14.23;5.57;;;;;;;-142.75;100.00;78818.91;4964811;28;20327;-65
2022/11/26 03:38:47;;;;;;;14.30;5.47;;;;;;;-142.75;100.00;78820.88;4964545;28;20389;-66
2022/11/26 03:41:12;;;;;;;18.65;5.93;;;;;;;-142.75;100.00;78830.75;4964590;28;20374;-65
2022/11/26 03:43:38;;;;;;;17.25;6.85;;;;;;;-142.75;100.00;78824.84;4964050;28;20319;-66
2022/11/26 03:46:03;;;;;;;15.95;6.95;;;;;;;-142.75;100.00;78830.75;4964721;28;20319;-66
2022/11/26 03:48:29;;;;;;;20.25;6.22;;;;;;;-142.75;100.00;78834.69;4964863;28;20442;-65
2022/11/26 03:50:54;;;;;;;20.65;6.47;;;;;;;-142.75;100.00;78826.81;4964208;28;20320;-66
2022/11/26 03:53:20;;;;;;;15.48;6.25;;;;;;;-142.75;100.00;78846.50;4961885;28;20029;-66
2022/11/26 03:55:46;;;;;;;;;;;;;;;-142.75;100.00;78840.59;4964887;28;20021;-66
2022/11/26 03:58:11;;;;;;;19.37;5.63;;;;;;;-142.75;100.00;78844.53;4963323;28;20223;-66
2022/11/26 04:00:37;;;;;;;16.15;6.90;;;;;;;-142.75;100.00;78838.63;4963575;28;20044;-66
2022/11/26 04:03:02;;;;;;;14.40;5.90;;;;;;;-142.75;100.00;78844.53;4963436;28;20439;-66
2022/11/26 04:05:28;;;;;;;14.77;6.05;;;;;;;-142.75;100.00;78838.63;4963744;28;20338;-66
2022/11/26 04:07:53;;;;;;;16.25;6.18;;;;;;;-142.75;100.00;78826.81;4963603;28;20351;-66
2022/11/26 04:10:19;;;;;;;25.60;7.00;;;;;;;-142.75;100.00;78822.88;4964004;28;20338;-64
2022/11/26 04:12:44;;;;;;;16.88;6.18;;;;;;;-142.75;100.00;78820.88;4963797;28;20327;-65
2022/11/26 04:15:10;;;;;;;15.60;6.22;;;;;;;-142.75;100.00;78822.88;4962862;28;20373;-65
2022/11/26 04:17:35;;;;;;;22.33;5.97;;;;;;;-142.75;100.00;78822.88;4963187;28;20068;-65
2022/11/26 04:20:01;;;;;;;13.13;5.97;;;;;;;-142.75;100.00;78813.00;4963120;28;20514;-66
2022/11/26 04:22:27;;;;;;;26.42;6.60;;;;;;;-142.75;100.00;78811.03;4961665;28;20307;-65
2022/11/26 04:24:52;;;;;;;21.42;6.82;;;;;;;-142.75;100.00;78803.16;4962901;28;20194;-66
2022/11/26 04:27:17;;;;;;;31.27;6.13;;;;;;;-142.75;100.00;78799.22;4963001;28;20340;-66
2022/11/26 04:29:43;;;;;;;21.30;6.82;;;;;;;-142.75;100.00;78816.94;4962808;28;20351;-66
2022/11/26 04:32:08;;;;;;;16.48;6.00;;;;;;;-142.75;100.00;78811.03;4962865;28;20409;-67
2022/11/26 04:34:34;;;;;;;20.77;7.00;;;;;;;-142.75;100.00;78809.06;4962784;28;20554;-66
2022/11/26 04:36:59;;;;;;;19.67;5.97;;;;;;;-142.75;100.00;78811.03;4962040;28;20335;-65
2022/11/26 04:39:25;;;;;;;20.83;6.93;;;;;;;-142.75;100.00;78809.06;4960725;28;20048;-66
2022/11/26 04:41:50;;;;;;;21.48;6.47;;;;;;;-142.75;100.00;78820.88;4962490;28;20326;-65
2022/11/26 04:44:16;;;;;;;20.70;6.13;;;;;;;-142.75;100.00;78814.97;4960500;28;20103;-66
2022/11/26 04:46:41;;;;;;;22.20;6.32;;;;;;;-142.75;100.00;78822.88;4963383;28;20152;-66
2022/11/26 04:49:07;;;;;;;22.98;7.15;;;;;;;-142.75;100.00;78826.81;4963965;28;20198;-65
2022/11/26 04:51:33;;;;;;;26.83;7.15;;;;;;;-142.75;100.00;78840.59;4963139;28;20416;-66
2022/11/26 04:53:58;;;;;;;22.33;7.32;;;;;;;-142.75;100.00;78846.50;4964257;28;20343;-66
2022/11/26 04:56:24;;;;;;;23.00;7.78;;;;;;;-142.75;100.00;78866.19;4964475;28;20350;-66
2022/11/26 04:58:49;;;;;;;21.55;7.80;;;;;;;-142.75;100.00;78856.34;4961046;28;20430;-66
2022/11/26 05:01:15;;;;;;;16.40;7.65;;;;;;;-142.75;100.00;78864.22;4963025;28;20095;-65
2022/11/26 05:03:41;;;;;;;24.23;7.65;;;;;;;-142.75;100.00;78874.06;4963142;28;20487;-66
2022/11/26 05:06:07;;;;;;;20.73;7.67;;;;;;;-142.75;100.00;78864.22;4963376;28;20116;-65
2022/11/26 05:08:32;;;;;;;21.83;7.68;;;;;;;-142.75;100.00;78881.94;4962490;28;20322;-65
2022/11/26 05:11:00;;;;;;;26.60;8.32;;;;;;;-142.75;100.00;78878.00;4964810;28;20314;-64
2022/11/26 05:13:26;;;;;;;28.00;8.63;;;;;;;-142.75;100.00;78874.06;4962629;28;20107;-65
2022/11/26 05:15:52;;;;;;;24.90;8.23;;;;;;;-142.75;100.00;78881.94;4961731;28;20084;-65
2022/11/26 05:18:17;;;;;;;24.83;8.30;;;;;;;-142.75;100.00;78885.88;4963809;28;20358;-65
2022/11/26 05:20:43;;;;;;;22.63;7.80;;;;;;;-142.75;100.00;78860.28;4964581;28;20135;-65
2022/11/26 05:23:08;;;;;;;22.58;8.25;;;;;;;-142.75;100.00;78885.88;4949581;28;20327;-65
2022/11/26 05:25:34;;;;;;;21.33;8.18;;;;;;;-142.75;100.00;78881.94;4963233;28;20322;-65
2022/11/26 05:28:00;;;;;;;25.50;9.23;;;;;;;-142.75;100.00;78879.97;4962322;28;20057;-63
2022/11/26 05:30:25;;;;;;;27.17;8.55;;;;;;;-142.75;100.00;78872.09;4979600;22;20057;-67
2022/11/26 05:32:51;;;;;;;27.90;8.45;;;;;;;-142.75;100.00;78866.19;4946644;28;20338;-67
2022/11/26 05:35:16;;;;;;;22.70;8.70;;;;;;;-142.75;100.00;78878.00;4962040;28;20361;-67
2022/11/26 05:37:42;;;;;;;22.02;7.75;;;;;;;-142.75;100.00;78889.81;4962048;28;20319;-67
2022/11/26 05:40:08;;;;;;;28.67;7.90;;;;;;;-142.75;100.00;78893.78;4962131;28;20311;-67
2022/11/26 05:42:34;;;;;;;27.57;9.67;;;;;;;-142.75;100.00;78895.75;4961828;28;20060;-67
2022/11/26 05:45:00;;;;;;;37.13;9.27;;;;;;;-142.75;100.00;78905.59;4962167;28;20331;-66
2022/11/26 05:47:26;;;;;;;21.75;8.05;;;;;;;-142.75;100.00;78911.50;4962310;28;20323;-67
2022/11/26 05:49:51;;;;;;;31.92;8.77;;;;;;;-142.75;100.00;78909.53;4961821;28;20343;-67
2022/11/26 05:52:17;;;;;;;24.70;8.38;;;;;;;-142.75;100.00;78905.59;4963190;28;20323;-67
2022/11/26 05:54:42;;;;;;;25.90;8.75;;;;;;;-142.75;100.00;78899.69;4966034;28;20381;-67
2022/11/26 05:57:09;;;;;;;31.08;8.98;;;;;;;-142.75;100.00;78893.78;4966112;28;20544;-67
2022/11/26 05:59:35;;;;;;;28.27;8.77;;;;;;;-142.75;100.00;78905.59;4949194;28;20021;-66
2022/11/26 06:02:00;;;;;;;19.33;9.40;;;;;;;-142.75;100.00;78913.47;4965644;28;20057;-66
2022/11/26 06:04:26;;;;;;;23.25;8.25;;;;;;;-142.75;100.00;78907.56;4926956;28;20355;-66
2022/11/26 06:06:51;;;;;;;25.70;8.75;;;;;;;-142.75;100.00;78907.56;4941341;28;20314;-67
2022/11/26 06:09:17;;;;;;;26.95;9.13;;;;;;;-142.75;100.00;78913.47;4959721;28;20444;-67
2022/11/26 06:11:43;;;;;;;26.20;9.10;;;;;;;-142.75;100.00;78913.47;4965867;28;20327;-67
2022/11/26 06:14:09;;;;;;;32.33;8.13;;;;;;;-142.75;100.00;78921.34;4965952;28;20324;-67
2022/11/26 06:16:35;;;;;;;26.60;9.23;;;;;;;-142.75;100.00;78913.47;4965326;28;20057;-66
2022/11/26 06:19:00;;;;;;;23.15;9.15;;;;;;;-142.75;100.00;78915.44;4965495;28;20194;-67
2022/11/26 06:21:26;;;;;;;27.52;9.23;;;;;;;-142.75;100.00;78933.16;4965113;28;20076;-66
2022/11/26 06:23:51;;;;;;;23.02;8.82;;;;;;;-142.75;100.00;78929.22;4963809;28;20431;-67
2022/11/26 06:26:17;;;;;;;25.10;8.45;;;;;;;-142.75;100.00;78937.09;4965136;28;20191;-67
2022/11/26 06:28:42;;;;;;;21.77;8.77;;;;;;;-142.75;100.00;78935.13;4965251;28;20341;-67
2022/11/26 06:31:08;;;;;;;37.45;10.02;;;;;;;-142.75;100.00;78919.38;4965337;28;20331;-67
2022/11/26 06:33:34;;;;;;;23.70;9.73;;;;;;;-142.75;100.00;78917.41;4965443;28;20036;-67
2022/11/26 06:36:00;;;;;;;25.73;7.90;;;;;;;-142.75;100.00;78911.50;4963660;28;20434;-66
2022/11/26 06:38:26;;;;;;;22.65;8.77;;;;;;;-142.75;100.00;78905.59;4965289;28;20539;-67
2022/11/26 06:41:00;;;;;;;27.00;9.27;;;;;;;-142.75;100.00;78905.59;4964859;28;20029;-67
2022/11/26 06:43:26;;;;;;;31.47;8.97;;;;;;;-142.75;100.00;78921.34;4963214;28;20030;-67
2022/11/26 06:45:52;;;;;;;21.98;8.52;;;;;;;-142.75;100.00;78923.31;4967566;28;20327;-64
2022/11/26 06:48:17;;;;;;;26.27;9.70;;;;;;;-142.75;100.00;78921.34;4964774;28;20021;-66
2022/11/26 06:50:43;;;;;;;23.95;7.10;;;;;;;-142.75;100.00;78921.34;4964884;28;20029;-67
2022/11/26 06:53:08;;;;;;;36.05;8.85;;;;;;;-142.75;100.00;78913.47;4964772;28;20338;-67
2022/11/26 06:55:34;;;;;;;28.00;8.32;;;;;;;-142.75;100.00;78901.66;4964690;28;20346;-66
2022/11/26 06:57:59;;;;;;;26.05;7.18;;;;;;;-142.75;100.00;78901.66;4965025;28;20327;-66
2022/11/26 07:00:24;;;;;;;21.80;8.02;;;;;;;-142.75;100.00;78899.69;4962782;28;20370;-67
2022/11/26 07:02:50;;;;;;;28.50;8.38;;;;;;;-142.75;100.00;78899.69;4965729;28;20343;-67
2022/11/26 07:05:15;;;;;;;29.73;8.23;;;;;;;-142.75;100.00;78901.66;4964118;28;20505;-66
2022/11/26 07:07:41;;;;;;;31.90;8.57;;;;;;;-142.75;100.00;78901.66;4964295;28;20419;-66
2022/11/26 07:10:07;;;;;;;24.23;8.50;;;;;;;-142.75;100.00;78909.53;4963186;28;20424;-65
2022/11/26 07:12:32;;;;;;;23.85;7.97;;;;;;;-142.75;100.00;78911.50;4964749;28;20315;-65
2022/11/26 07:14:58;;;;;;;20.48;7.20;;;;;;;-142.75;100.00;78919.38;4964704;28;20342;-65
2022/11/26 07:17:23;;;;;;;22.27;7.15;;;;;;;-142.75;100.00;78907.56;4964602;28;20354;-65
2022/11/26 07:19:49;;;;;;;20.98;8.50;;;;;;;-142.75;100.00;78897.72;4965074;28;20370;-65
2022/11/26 07:22:14;;;;;;;20.92;7.65;;;;;;;-142.75;100.00;78893.78;4962809;28;20523;-64
2022/11/26 07:24:40;;;;;;;27.55;7.78;;;;;;;-142.75;100.00;78885.88;4964712;28;20068;-65
2022/11/26 07:27:06;;;;;;;32.67;7.75;;;;;;;-142.75;100.00;78881.94;4962764;28;20344;-66
2022/11/26 07:29:32;;;;;;;20.30;8.20;;;;;;;-142.75;100.00;78881.94;4964221;28;20029;-66
2022/11/26 07:31:57;;;;;;;36.85;7.35;;;;;;;-142.75;100.00;78876.03;4964756;28;20312;-66
2022/11/26 07:34:23;;;;;;;20.98;7.95;;;;;;;-142.75;100.00;78887.84;4964375;28;20339;-65
2022/11/26 07:36:48;;;;;;;25.67;7.28;;;;;;;-142.75;100.00;78874.06;4964351;28;20026;-65
2022/11/26 07:39:14;;;;;;;20.30;7.00;;;;;;;-142.75;100.00;78893.78;4964140;28;20470;-66
2022/11/26 07:41:39;;;;;;;23.25;8.18;;;;;;;-142.75;100.00;78893.78;4962478;28;20436;-67
2022/11/26 07:44:05;;;;;;;25.63;7.47;;;;;;;-142.75;100.00;78878.00;4964064;28;20322;-67
2022/11/26 07:46:30;;;;;;;33.85;8.32;;;;;;;-142.75;100.00;78885.88;4963765;28;20393;-66
2022/11/26 07:48:56;;;;;;;17.65;6.75;;;;;;;-142.75;100.00;78868.16;4968619;28;20304;-68
2022/11/26 07:51:26;;;;;;;;;;;;;;;-142.75;100.00;78852.41;4935473;28;20030;-67
2022/11/26 07:53:52;;;;;;;21.27;6.77;;;;;;;-142.75;100.00;78860.28;4961835;28;19917;-67
2022/11/26 07:56:18;;;;;;;25.38;6.63;;;;;;;-142.75;100.00;78864.22;4964376;28;20017;-68
2022/11/26 07:58:44;;;;;;;19.90;7.55;;;;;;;-142.75;100.00;78858.31;4953379;28;20025;-67
2022/11/26 08:01:11;;;;;;;;;;;;;;;-142.75;100.00;78870.13;4943067;28;20125;-67
2022/11/26 08:03:39;;;;;;;25.40;6.65;;;;;;;-142.75;100.00;78876.03;4961923;28;19909;-67
2022/11/26 08:06:07;;;;;;;30.33;8.23;;;;;;;-142.75;100.00;78864.22;4963528;28;20033;-68
2022/11/26 08:08:34;;;;;;;23.77;8.00;;;;;;;-142.75;100.00;78858.31;4963295;28;20056;-67
2022/11/26 08:11:00;;;;;;;26.70;7.67;;;;;;;-142.75;100.00;78864.22;4956505;28;20018;-67
2022/11/26 08:13:26;;;;;;;32.70;7.53;;;;;;;-142.75;100.00;78876.03;4961704;28;20056;-67
2022/11/26 08:15:51;;;;;;;19.75;7.50;;;;;;;-142.75;100.00;78872.09;4961136;28;20389;-68
2022/11/26 08:18:17;;;;;;;26.65;7.75;;;;;;;-142.75;100.00;78864.22;4963627;28;20488;-68
2022/11/26 08:20:42;;;;;;;28.30;8.38;;;;;;;-142.75;100.00;78879.97;4952562;28;20338;-68
2022/11/26 08:23:08;;;;;;;26.55;7.45;;;;;;;-142.75;100.00;78885.88;4963905;28;20029;-66
2022/11/26 08:25:34;;;;;;;29.05;9.23;;;;;;;-142.75;100.00;78889.81;4963624;28;20051;-68
2022/11/26 08:27:59;;;;;;;20.70;7.63;;;;;;;-142.75;100.00;78876.03;4965233;28;20048;-68
2022/11/26 08:30:25;;;;;;;28.00;9.65;;;;;;;-142.75;100.00;78870.13;4961775;28;20168;-67
2022/11/26 08:32:50;;;;;;;19.42;7.93;;;;;;;-142.75;100.00;78885.88;4942510;28;20276;-68
2022/11/26 08:35:16;;;;;;;28.17;8.15;;;;;;;-142.75;100.00;78876.03;4939863;28;20423;-69
2022/11/26 08:37:41;;;;;;;21.42;7.65;;;;;;;-142.75;100.00;78870.13;4970767;28;20105;-67
2022/11/26 08:40:07;;;;;;;22.98;7.47;;;;;;;-142.75;100.00;78874.06;5011237;28;20098;-66
2022/11/26 08:42:32;;;;;;;24.48;8.57;;;;;;;-142.75;100.00;78866.19;5015024;28;20408;-66
2022/11/26 08:44:57;;;;;;;19.43;6.87;;;;;;;-142.75;100.00;78866.19;5017194;28;20021;-69
2022/11/26 08:47:23;;;;;;;19.15;7.93;;;;;;;-142.75;100.00;78872.09;5015187;28;20276;-67
2022/11/26 08:49:48;;;;;;;30.58;7.72;;;;;;;-142.75;100.00;78850.44;5006892;28;20072;-68
2022/11/26 08:52:14;;;;;;;21.05;7.75;;;;;;;-142.75;100.00;78846.50;5007488;28;20028;-63
2022/11/26 08:54:40;;;;;;;23.05;7.25;;;;;;;-142.75;100.00;78856.34;5006413;28;20053;-68
2022/11/26 08:57:05;;;;;;;15.75;6.85;;;;;;;-142.75;100.00;78850.44;5001176;28;20108;-67
2022/11/26 08:59:30;;;;;;;19.23;6.88;;;;;;;-142.75;100.00;78854.38;4998435;28;20589;-66
2022/11/26 09:01:56;;;;;;;24.20;8.80;;;;;;;-142.75;100.00;78864.22;4991146;28;20578;-67
2022/11/26 09:04:21;;;;;;;26.55;7.47;;;;;;;-142.75;100.00;78866.19;4961880;28;20287;-68
2022/11/26 09:06:47;;;;;;;18.77;6.28;;;;;;;-142.75;100.00;78858.31;4944726;28;20523;-68
2022/11/26 09:09:12;;;;;;;26.10;7.50;;;;;;;-142.75;100.00;78846.50;4959991;28;20361;-69
2022/11/26 09:11:49;;;;;;;23.25;6.88;;;;;;;-142.75;100.00;78840.59;4946595;28;20291;-69
2022/11/26 09:14:17;;;;;;;24.65;7.40;;;;;;;-142.75;100.00;78876.03;4949602;28;20029;-68
2022/11/26 09:16:42;;;;;;;25.47;7.63;;;;;;;-142.75;100.00;78860.28;4947520;28;20091;-69
2022/11/26 09:19:11;;;;;;;24.20;7.60;;;;;;;-142.75;100.00;78854.38;4962420;28;20385;-68
2022/11/26 09:21:36;;;;;;;28.40;7.00;;;;;;;-142.75;100.00;78866.19;4962663;28;20018;-69
2022/11/26 09:24:02;;;;;;;24.60;7.07;;;;;;;-142.75;100.00;78846.50;4957817;28;20309;-68
2022/11/26 09:26:30;;;;;;;20.27;7.65;;;;;;;-142.75;100.00;78838.63;4953222;28;20428;-68
2022/11/26 09:28:55;;;;;;;25.13;7.38;;;;;;;-142.75;100.00;78848.47;4963021;28;20033;-69
2022/11/26 09:31:21;;;;;;;23.80;7.50;;;;;;;-142.75;100.00;78826.81;4962579;28;20082;-69
2022/11/26 09:33:47;;;;;;;21.02;7.78;;;;;;;-142.75;100.00;78820.88;4963508;28;20035;-67
2022/11/26 09:36:14;;;;;;;25.05;7.30;;;;;;;-142.75;100.00;78813.00;4968397;28;20199;-64
2022/11/26 09:38:40;;;;;;;26.20;8.00;;;;;;;-142.75;100.00;78811.03;4978877;28;20030;-63
2022/11/26 09:41:59;;;;;;;29.33;6.97;;;;;;;-142.75;100.00;78769.69;4952448;28;20172;-64
2022/11/26 09:44:43;;;;;;;28.00;7.43;;;;;;;-142.75;100.00;78755.91;4875548;29;20616;-66
2022/11/26 09:47:37;;;;;;;17.40;6.40;;;;;;;-142.75;100.00;78773.63;4863100;29;20027;-69
2022/11/26 09:50:12;;;;;;;28.43;7.70;;;;;;;-142.75;100.00;78767.72;4936892;28;20064;-68
2022/11/26 09:52:49;;;;;;;26.30;6.93;;;;;;;-142.75;100.00;78765.75;4954352;28;20148;-68
2022/11/26 09:55:40;;;;;;;21.10;7.20;;;;;;;-142.75;100.00;78755.91;4954916;28;20091;-68
2022/11/26 09:58:22;;;;;;;24.73;7.50;;;;;;;-142.75;100.00;78777.56;4960483;28;20753;-68
2022/11/26 10:00:50;;;;;;;34.30;7.13;;;;;;;-142.75;100.00;78763.78;4962421;28;20025;-67
2022/11/26 10:03:21;;;;;;;30.88;7.75;;;;;;;-142.75;100.00;78755.91;4961842;28;20060;-68
2022/11/26 10:05:59;;;;;;;17.65;7.05;;;;;;;-142.75;100.00;78755.91;4960163;28;20555;-67
2022/11/26 10:08:39;;;;;;;31.43;8.03;;;;;;;-142.75;100.00;78748.03;4962709;28;20064;-68
2022/11/26 10:11:08;;;;;;;32.97;9.07;;;;;;;-142.75;100.00;78750.00;4964408;28;20218;-68
2022/11/26 10:14:00;;;;;;;26.17;8.23;;;;;;;-142.75;100.00;78724.38;4956265;28;20030;-68
2022/11/26 10:16:42;;;;;;;18.48;7.20;;;;;;;-142.75;100.00;78720.44;4974445;28;20033;-68
2022/11/26 10:19:14;;;;;;;20.60;7.17;;;;;;;-142.75;100.00;78718.47;4938782;28;20095;-69
2022/11/26 10:21:45;;;;;;;27.13;7.35;;;;;;;-142.75;100.00;78708.63;4961154;28;20132;-67
2022/11/26 10:24:30;;;;;;;22.88;6.78;;;;;;;-142.75;100.00;78700.75;4962185;28;20033;-68
2022/11/26 10:27:00;;;;;;;28.73;7.07;;;;;;;-142.75;100.00;78675.16;4962532;28;20052;-68
2022/11/26 10:29:32;;;;;;;32.05;7.78;;;;;;;-142.75;100.00;78610.16;4961559;28;20053;-68
2022/11/26 10:32:06;;;;;;;22.40;7.25;;;;;;;-142.75;100.00;78555.00;4931029;28;20026;-68
2022/11/26 10:34:47;;;;;;;25.67;6.88;;;;;;;-142.75;100.00;78523.50;4961683;28;20132;-68
2022/11/26 10:37:12;;;;;;;19.77;6.75;;;;;;;-142.75;100.00;78497.91;4956396;28;20029;-67
2022/11/26 10:39:38;;;;;;;24.73;6.38;;;;;;;-142.75;100.00;78474.25;4963912;28;20469;-67
2022/11/26 10:42:15;;;;;;;20.95;5.93;;;;;;;-142.75;100.00;78497.91;4960126;28;20419;-67
2022/11/26 10:44:40;;;;;;;11.48;5.20;;;;;;;-142.75;100.00;78442.75;4945818;28;20092;-67
2022/11/26 10:47:25;;;;;;;23.30;5.93;;;;;;;-142.75;100.00;78428.97;4966653;28;20029;-66
2022/11/26 10:49:52;;;;;;;19.85;5.45;;;;;;;-142.75;100.00;78444.72;4999339;28;20041;-65
2022/11/26 10:52:23;;;;;;;22.27;5.72;;;;;;;-142.75;100.00;78436.84;5010942;28;20017;-65
2022/11/26 10:55:06;;;;;;;18.65;6.30;;;;;;;-142.75;100.00;78452.59;5010776;28;20863;-62
2022/11/26 10:57:35;;;;;;;20.05;6.18;;;;;;;-142.75;100.00;78456.53;5016746;28;20029;-62
2022/11/26 11:00:00;;;;;;;20.33;5.90;;;;;;;-142.75;100.00;78452.59;5020628;28;20021;-64
2022/11/26 11:02:37;;;;;;;30.25;6.18;;;;;;;-142.75;100.00;78466.38;5018740;28;20025;-63
2022/11/26 11:05:07;;;;;;;18.25;5.70;;;;;;;-142.75;100.00;78460.47;5018222;28;20033;-63
2022/11/26 11:07:32;;;;;;;16.77;5.50;;;;;;;-142.75;100.00;78474.25;5014011;28;20029;-66
2022/11/26 11:10:12;;;;;;;15.10;5.23;;;;;;;-142.75;100.00;78456.53;5015263;28;20044;-65